Time;durP1;ratioP1;P1;durP2;ratioP2;P2;SDS_P1;SDS_P2;PMS_P1;PMS_P2;Temp;Humidity;BMP_temperature;BMP_pressure;BME280_temperature;BME280_humidity;BME280_pressure;Samples;Min_cycle;Max_cycle;Signal;HPM_P1;HPM_P2
2022/04/22 00:01:29;;;;;;;43.45;27.58;;;;;;;8.89;82.08;100163.33;1779078;80;20997;-71
2022/04/22 00:03:56;;;;;;;41.37;27.73;;;;;;;8.90;82.13;100164.47;1740139;81;21034;-71
2022/04/22 00:06:22;;;;;;;43.90;28.23;;;;;;;8.94;82.18;100163.64;1730051;82;21146;-71
2022/04/22 00:08:48;;;;;;;39.35;27.55;;;;;;;8.93;82.19;100156.69;1719536;82;21005;-71
2022/04/22 00:11:29;;;;;;;43.95;28.17;;;;;;;8.87;82.20;100157.33;1725541;82;21117;-71
2022/04/22 00:13:59;;;;;;;36.63;26.80;;;;;;;8.83;82.22;100153.36;1732886;82;21058;-70
2022/04/22 00:16:27;;;;;;;41.70;28.27;;;;;;;8.84;82.26;100149.68;1758351;81;21002;-70
2022/04/22 00:18:54;;;;;;;41.80;27.13;;;;;;;8.85;82.29;100151.35;1740586;81;21788;-71
2022/04/22 00:21:21;;;;;;;46.05;31.27;;;;;;;8.86;82.30;100148.55;1745701;81;21017;-70
2022/04/22 00:23:48;;;;;;;47.05;29.70;;;;;;;8.92;82.32;100149.70;1741061;81;21041;-70
2022/04/22 00:26:15;;;;;;;51.00;28.38;;;;;;;8.94;82.32;100149.02;1752568;80;21061;-70
2022/04/22 00:28:41;;;;;;;45.35;28.47;;;;;;;8.96;82.35;100153.69;1731676;81;21051;-70
2022/04/22 00:31:07;;;;;;;43.50;29.90;;;;;;;8.98;82.36;100150.36;1711925;82;21681;-71
2022/04/22 00:33:33;;;;;;;41.95;28.00;;;;;;;8.98;82.38;100146.36;1718489;82;21059;-71
2022/04/22 00:35:59;;;;;;;41.33;26.80;;;;;;;8.98;82.39;100145.03;1742131;81;20975;-71
2022/04/22 00:38:25;;;;;;;37.93;25.30;;;;;;;9.00;82.40;100136.41;1752411;81;21052;-71
2022/04/22 00:40:55;;;;;;;38.00;26.42;;;;;;;8.97;82.42;100131.42;1727636;83;20886;-70
2022/04/22 00:43:22;;;;;;;36.60;24.60;;;;;;;8.84;82.37;100118.61;1755987;81;21234;-71
2022/04/22 00:45:48;;;;;;;36.53;24.80;;;;;;;8.81;82.40;100123.42;1749731;81;21612;-70
2022/04/22 00:48:15;;;;;;;34.35;24.00;;;;;;;8.82;82.41;100127.75;1759763;81;21046;-70
2022/04/22 00:50:42;;;;;;;38.02;25.20;;;;;;;8.85;82.42;100128.75;1730411;81;21508;-71
2022/04/22 00:53:08;;;;;;;39.40;27.45;;;;;;;8.87;82.43;100120.09;1734002;81;21085;-70
2022/04/22 00:55:39;;;;;;;45.48;28.00;;;;;;;8.88;82.43;100112.46;1759411;81;21114;-70
2022/04/22 00:58:05;;;;;;;45.15;29.30;;;;;;;8.87;82.46;100107.63;1757348;81;21002;-71
2022/04/22 01:00:31;;;;;;;42.33;27.75;;;;;;;8.87;82.48;100110.30;1760369;80;21062;-71
2022/04/22 01:02:57;;;;;;;42.67;27.20;;;;;;;8.81;82.50;100102.16;1731419;81;21552;-70
2022/04/22 01:10:53;;;;;;;43.28;27.98;;;;;;;8.77;82.59;100096.34;1758904;81;20995;-71
2022/04/22 01:13:19;;;;;;;48.60;30.08;;;;;;;8.79;82.57;100094.36;1745756;82;21542;-71
2022/04/22 01:15:46;;;;;;;40.70;25.82;;;;;;;8.82;82.55;100093.19;1753069;81;21061;-71
2022/04/22 01:18:14;;;;;;;41.70;26.02;;;;;;;8.77;82.58;100090.19;1726218;82;21054;-71
2022/04/22 01:20:40;;;;;;;39.05;25.40;;;;;;;8.67;82.58;100085.53;1752969;81;21502;-71
2022/04/22 01:23:06;;;;;;;39.48;26.17;;;;;;;8.65;82.61;100080.89;1750762;81;20978;-71
2022/04/22 01:25:32;;;;;;;47.55;29.07;;;;;;;8.63;82.62;100081.05;1744855;82;21098;-71
2022/04/22 01:27:58;;;;;;;46.30;28.85;;;;;;;8.57;82.64;100078.22;1759324;81;20949;-71
2022/04/22 01:30:24;;;;;;;45.43;29.40;;;;;;;8.53;82.64;100077.22;1725786;82;20995;-71
2022/04/22 01:32:52;;;;;;;37.85;26.52;;;;;;;8.49;82.66;100074.55;1723932;82;21078;-70
2022/04/22 01:35:19;;;;;;;39.67;24.57;;;;;;;8.47;82.65;100065.93;1726139;82;21053;-71
2022/04/22 01:37:46;;;;;;;36.33;25.57;;;;;;;8.33;82.67;100062.59;1736817;82;21492;-71
2022/04/22 01:40:12;;;;;;;40.40;27.52;;;;;;;8.20;82.67;100058.20;1741241;81;21474;-71
2022/04/22 01:42:38;;;;;;;44.05;28.45;;;;;;;8.11;82.66;100061.84;1759273;81;21037;-70
2022/04/22 01:45:05;;;;;;;48.58;29.02;;;;;;;8.07;82.67;100063.16;1759383;81;21033;-70
2022/04/22 01:47:31;;;;;;;48.23;28.12;;;;;;;8.05;82.69;100062.50;1759422;81;21026;-71
2022/04/22 01:49:57;;;;;;;44.85;27.82;;;;;;;8.01;82.70;100053.19;1727618;81;21017;-70
2022/04/22 01:52:24;;;;;;;41.25;27.45;;;;;;;7.96;82.73;100051.50;1759198;81;21081;-71
2022/04/22 01:54:51;;;;;;;42.23;28.15;;;;;;;7.92;82.75;100056.80;1740591;82;21031;-70
2022/04/22 01:57:21;;;;;;;47.30;29.77;;;;;;;7.85;82.74;100065.06;1754312;81;21875;-70
2022/04/22 01:59:48;;;;;;;55.28;35.60;;;;;;;7.82;82.77;100058.75;1728098;81;21530;-71
2022/04/22 02:02:15;;;;;;;70.17;39.92;;;;;;;7.80;82.74;100061.59;1744813;81;21058;-70
2022/04/22 02:04:41;;;;;;;53.78;35.35;;;;;;;7.76;82.73;100067.37;1743961;80;21010;-71
2022/04/22 02:07:07;;;;;;;61.20;36.63;;;;;;;7.73;82.71;100060.56;1770096;80;21097;-70
2022/04/22 02:09:33;;;;;;;49.18;32.48;;;;;;;7.73;82.78;100059.73;1761472;80;21924;-70
2022/04/22 02:11:59;;;;;;;41.40;27.85;;;;;;;7.77;82.83;100058.42;1758084;81;21002;-70
2022/04/22 02:14:25;;;;;;;42.17;28.77;;;;;;;7.84;82.82;100066.08;1766707;80;21068;-71
2022/04/22 02:16:52;;;;;;;46.88;29.05;;;;;;;7.84;82.82;100056.79;1770641;81;21042;-71
2022/04/22 02:19:18;;;;;;;52.58;32.38;;;;;;;7.82;82.86;100054.28;1767060;80;21018;-70
2022/04/22 02:21:45;;;;;;;46.30;27.93;;;;;;;7.81;82.89;100045.17;1770752;81;21762;-70
2022/04/22 02:24:11;;;;;;;44.38;28.45;;;;;;;7.81;82.91;100038.01;1770578;80;21093;-71
2022/04/22 02:29:22;;;;;;;48.55;29.77;;;;;;;7.87;82.96;100043.19;1762927;80;21058;-71
2022/04/22 02:31:52;;;;;;;64.67;34.38;;;;;;;7.85;83.02;100042.50;1771119;80;21526;-71
2022/04/22 02:34:18;;;;;;;65.57;35.77;;;;;;;7.82;83.03;100045.48;1746681;80;21503;-70
2022/04/22 02:36:45;;;;;;;63.33;37.13;;;;;;;7.73;83.03;100041.98;1767516;80;21021;-70
2022/04/22 02:39:11;;;;;;;54.63;34.08;;;;;;;7.77;83.09;100040.67;1756670;80;21002;-70
2022/04/22 02:47:04;;;;;;;43.28;29.02;;;;;;;7.74;83.14;100048.13;1811758;78;21314;-70
2022/04/22 02:49:30;;;;;;;44.70;28.77;;;;;;;7.76;83.18;100043.48;1811312;78;21058;-70
2022/04/22 02:51:56;;;;;;;41.80;27.70;;;;;;;7.81;83.22;100049.15;1822615;78;20994;-70
2022/04/22 02:54:22;;;;;;;44.18;28.57;;;;;;;7.85;83.23;100048.64;1799242;78;20982;-71
2022/04/22 02:56:52;;;;;;;47.95;29.65;;;;;;;7.85;83.25;100045.16;1749737;79;21087;-71
2022/04/22 02:59:18;;;;;;;46.05;30.55;;;;;;;7.90;83.31;100042.86;1759484;80;21041;-70
2022/04/22 03:01:45;;;;;;;49.73;32.10;;;;;;;7.91;83.32;100043.20;1778096;80;21039;-71
2022/04/22 03:04:12;;;;;;;53.28;32.60;;;;;;;7.90;83.37;100038.88;1789436;80;21046;-71
2022/04/22 03:06:38;;;;;;;49.18;30.52;;;;;;;7.97;83.39;100041.22;1786174;80;21063;-70
2022/04/22 03:09:07;;;;;;;55.55;35.52;;;;;;;7.99;83.41;100040.55;1789126;80;20991;-71
2022/04/22 03:11:34;;;;;;;57.50;35.07;;;;;;;7.96;83.47;100043.53;1771400;80;21131;-70
2022/04/22 03:14:03;;;;;;;45.10;28.85;;;;;;;7.95;83.49;100042.70;1782699;80;20971;-71
2022/04/22 03:16:29;;;;;;;42.08;28.83;;;;;;;7.92;83.48;100039.53;1783645;80;20987;-70
2022/04/22 03:18:55;;;;;;;39.10;26.82;;;;;;;7.91;83.53;100041.88;1779169;80;21091;-71
2022/04/22 03:21:22;;;;;;;40.40;26.48;;;;;;;7.90;83.55;100037.06;1758743;80;21004;-70
2022/04/22 03:23:48;;;;;;;37.17;26.65;;;;;;;7.94;83.58;100042.88;1759408;80;21452;-70
2022/04/22 03:26:15;;;;;;;41.45;29.48;;;;;;;7.91;83.57;100040.06;1789763;78;21483;-70
2022/04/22 03:28:41;;;;;;;39.55;27.62;;;;;;;7.90;83.57;100037.06;1782479;80;21008;-71
2022/04/22 03:31:07;;;;;;;44.00;28.77;;;;;;;7.92;83.61;100037.72;1756304;80;21009;-71
2022/04/22 03:33:33;;;;;;;42.33;29.20;;;;;;;7.96;83.67;100034.23;1772696;80;20975;-70
2022/04/22 03:36:00;;;;;;;39.53;26.90;;;;;;;8.00;83.66;100024.96;1789417;80;21077;-71
2022/04/22 03:38:27;;;;;;;43.15;29.95;;;;;;;8.06;83.68;100028.81;1768577;80;21010;-70
2022/04/22 03:40:53;;;;;;;41.25;29.52;;;;;;;8.05;83.71;100026.65;1772390;79;21022;-70
2022/04/22 03:43:20;;;;;;;45.95;30.15;;;;;;;8.07;83.58;100028.62;1774596;80;20887;-71
2022/04/22 03:45:46;;;;;;;46.25;32.78;;;;;;;8.07;83.58;100028.62;1782255;80;21031;-70
2022/04/22 03:48:15;;;;;;;47.93;32.00;;;;;;;8.12;83.75;100028.98;1787283;79;21130;-70
2022/04/22 03:50:42;;;;;;;51.60;34.93;;;;;;;8.15;83.77;100031.31;1756995;80;21479;-70
2022/04/22 03:53:14;;;;;;;74.77;43.73;;;;;;;8.16;83.77;100024.17;1765363;80;21341;-70
2022/04/22 03:55:41;;;;;;;77.27;47.73;;;;;;;8.16;83.75;100027.67;1749333;80;21046;-70
2022/04/22 03:58:10;;;;;;;69.17;41.05;;;;;;;8.16;83.76;100032.98;1781658;80;21642;-70
2022/04/22 04:00:45;;;;;;;50.78;35.03;;;;;;;8.19;83.80;100029.16;1759394;80;21048;-70
2022/04/22 04:03:12;;;;;;;55.00;36.20;;;;;;;8.21;83.80;100025.33;1770798;80;20971;-70
2022/04/22 04:05:39;;;;;;;59.60;39.03;;;;;;;8.22;83.79;100023.02;1788797;80;21041;-71
2022/04/22 04:08:06;;;;;;;56.45;36.13;;;;;;;8.11;83.76;100028.64;1785777;80;21514;-71
2022/04/22 04:16:01;;;;;;;41.37;28.30;;;;;;;7.99;83.89;100029.93;1789495;80;20975;-70
2022/04/22 04:18:30;;;;;;;44.45;31.17;;;;;;;7.97;83.92;100019.98;1785591;80;20985;-70
2022/04/22 04:23:41;;;;;;;39.15;27.42;;;;;;;8.05;83.95;100016.02;1789130;80;21090;-70
2022/04/22 04:26:07;;;;;;;33.73;25.37;;;;;;;8.04;83.96;100015.69;1789386;79;21492;-71
2022/04/22 04:28:35;;;;;;;41.35;28.65;;;;;;;8.03;83.97;100017.99;1776045;79;21689;-71
2022/04/22 04:31:01;;;;;;;40.03;27.37;;;;;;;8.02;83.99;100020.34;1769165;80;21030;-70
2022/04/22 04:33:29;;;;;;;37.15;25.12;;;;;;;8.05;84.04;100025.31;1772686;80;21021;-70
2022/04/22 04:35:55;;;;;;;38.13;26.68;;;;;;;8.04;84.06;100019.66;1784984;80;21031;-71
2022/04/22 04:38:21;;;;;;;41.25;27.87;;;;;;;8.08;84.10;100024.98;1780661;80;21106;-71
2022/04/22 04:40:47;;;;;;;41.75;27.67;;;;;;;8.14;84.09;100024.33;1780955;80;21062;-70
2022/04/22 04:43:13;;;;;;;41.40;27.02;;;;;;;8.21;84.09;100022.68;1777951;80;20991;-71
2022/04/22 04:45:39;;;;;;;41.20;27.25;;;;;;;8.20;84.11;100023.66;1765538;80;21001;-71
2022/04/22 04:48:07;;;;;;;36.90;26.02;;;;;;;8.22;84.14;100025.67;1788814;80;21486;-70
2022/04/22 04:50:33;;;;;;;37.98;26.57;;;;;;;8.20;84.13;100034.29;1776233;80;21330;-71
2022/04/22 04:52:59;;;;;;;52.13;31.65;;;;;;;8.20;84.14;100027.65;1747685;80;20911;-71
2022/04/22 04:55:26;;;;;;;44.20;29.95;;;;;;;8.25;84.17;100030.66;1764241;80;21019;-70
2022/04/22 04:57:52;;;;;;;39.78;29.27;;;;;;;8.28;84.19;100023.72;1753302;79;21063;-71
2022/04/22 05:00:18;;;;;;;44.58;29.40;;;;;;;8.31;84.21;100020.73;1759264;80;20913;-70
2022/04/22 05:02:45;;;;;;;44.18;30.55;;;;;;;8.32;84.21;100019.74;1770130;80;21178;-71
2022/04/22 05:05:12;;;;;;;62.10;37.78;;;;;;;8.27;84.22;100016.70;1788875;80;20976;-71
2022/04/22 05:07:58;;;;;;;78.90;45.55;;;;;;;8.24;84.26;100021.02;1771269;78;20994;-70
2022/04/22 05:10:29;;;;;;;62.38;36.93;;;;;;;8.19;84.23;100015.38;1782060;78;21250;-71
2022/04/22 05:12:55;;;;;;;50.55;31.48;;;;;;;8.19;84.22;100016.72;1789524;80;21542;-71
2022/04/22 05:15:22;;;;;;;52.20;34.50;;;;;;;8.21;84.25;100017.37;1789649;80;21915;-70
2022/04/22 05:17:48;;;;;;;45.83;29.37;;;;;;;8.24;84.27;100021.02;1789556;80;21015;-71
2022/04/22 05:20:16;;;;;;;47.60;32.38;;;;;;;8.27;84.26;100027.85;1789321;80;21015;-71
2022/04/22 05:22:43;;;;;;;48.52;32.70;;;;;;;8.30;84.31;100028.88;1788743;79;21432;-71
2022/04/22 05:25:11;;;;;;;46.65;30.92;;;;;;;8.36;84.33;100037.02;1787440;80;21038;-70
2022/04/22 05:27:37;;;;;;;48.70;32.20;;;;;;;8.41;84.33;100025.88;1788655;79;21139;-71
2022/04/22 05:32:49;;;;;;;42.10;29.12;;;;;;;8.55;84.37;100022.56;1789679;80;21014;-71
2022/04/22 05:35:17;;;;;;;44.15;30.27;;;;;;;8.48;84.31;100001.14;1789345;79;20903;-71
2022/04/22 05:38:00;;;;;;;43.28;29.90;;;;;;;8.48;84.31;100001.14;1785664;79;21530;-71
2022/04/22 05:40:30;;;;;;;44.33;31.17;;;;;;;8.62;84.37;100014.25;1789604;80;21224;-71
2022/04/22 05:42:56;;;;;;;47.62;33.83;;;;;;;8.66;84.38;100021.39;1789369;79;20998;-71
2022/04/22 05:45:24;;;;;;;52.00;36.33;;;;;;;8.69;84.37;100021.09;1788074;80;21551;-71
2022/04/22 05:47:56;;;;;;;48.60;34.55;;;;;;;8.72;84.39;100018.92;1789610;80;20995;-71
2022/04/22 05:50:18;;;;;;;51.13;34.10;;;;;;;8.76;84.39;100017.56;1787180;79;21546;-71
2022/04/22 05:52:44;;;;;;;46.35;31.93;;;;;;;8.82;84.40;100016.09;1789427;80;21223;-71
2022/04/22 05:55:18;;;;;;;54.10;32.88;;;;;;;8.87;84.37;100019.05;1789361;80;20975;-71
2022/04/22 05:57:45;;;;;;;48.48;32.48;;;;;;;8.90;84.38;100021.40;1788934;80;21042;-71
2022/04/22 06:00:14;;;;;;;44.20;31.40;;;;;;;8.94;84.37;100020.04;1789563;80;20963;-71
2022/04/22 06:02:41;;;;;;;49.53;31.70;;;;;;;8.98;84.37;100026.19;1787996;80;21432;-70
2022/04/22 06:05:11;;;;;;;39.50;30.23;;;;;;;8.98;84.34;100020.03;1789524;80;21117;-70
2022/04/22 06:07:37;;;;;;;44.85;30.30;;;;;;;8.99;84.33;100026.53;1791527;79;21072;-71
2022/04/22 06:12:52;;;;;;;44.93;30.82;;;;;;;8.99;84.30;100023.03;1785953;79;21018;-71
2022/04/22 06:15:19;;;;;;;46.00;31.33;;;;;;;9.02;84.27;100024.02;1753018;81;21037;-71
2022/04/22 06:17:46;;;;;;;40.80;28.30;;;;;;;9.08;84.26;100026.00;1729919;82;21164;-71
2022/04/22 06:20:12;;;;;;;41.53;30.32;;;;;;;9.13;84.21;100025.00;1733022;82;21026;-70
2022/04/22 06:22:38;;;;;;;41.33;30.77;;;;;;;9.16;84.19;100023.33;1730385;82;20920;-70
2022/04/22 06:25:05;;;;;;;45.08;32.60;;;;;;;9.18;84.15;100020.02;1738558;81;21025;-70
2022/04/22 06:27:40;;;;;;;42.45;30.88;;;;;;;9.20;84.14;100032.63;1745720;81;20974;-71
2022/04/22 06:30:08;;;;;;;43.38;30.50;;;;;;;9.26;84.10;100026.63;1756410;81;21951;-71
2022/04/22 06:32:36;;;;;;;40.83;28.50;;;;;;;9.24;84.05;100027.31;1757471;81;21584;-71
2022/04/22 06:35:04;;;;;;;42.53;29.40;;;;;;;9.22;84.00;100029.30;1758546;81;21002;-71
2022/04/22 06:37:35;;;;;;;42.10;29.82;;;;;;;9.23;83.97;100030.13;1758955;81;21022;-71
2022/04/22 06:48:06;;;;;;;43.60;31.10;;;;;;;9.14;83.80;100037.31;1722836;82;21603;-71
2022/04/22 06:50:33;;;;;;;43.35;28.83;;;;;;;9.13;83.76;100030.33;1735269;82;21056;-71
2022/04/22 06:52:59;;;;;;;45.03;30.65;;;;;;;9.14;83.73;100028.00;1728833;81;21011;-71
2022/04/22 06:55:26;;;;;;;45.08;30.40;;;;;;;9.15;83.71;100027.51;1741151;82;21149;-71
2022/04/22 06:57:53;;;;;;;42.80;29.85;;;;;;;9.16;83.67;100028.65;1741181;82;21504;-71
2022/04/22 07:00:20;;;;;;;43.10;29.90;;;;;;;9.18;83.64;100033.81;1736882;82;20999;-71
2022/04/22 07:02:46;;;;;;;45.25;30.62;;;;;;;9.20;83.63;100039.28;1741516;82;21011;-71
2022/04/22 07:05:13;;;;;;;43.80;31.23;;;;;;;9.22;83.60;100039.94;1732491;82;21461;-71
2022/04/22 07:07:40;;;;;;;43.75;30.65;;;;;;;9.25;83.60;100036.96;1724558;81;21729;-71
2022/04/22 07:10:07;;;;;;;41.40;30.60;;;;;;;9.27;83.54;100040.27;1747112;81;21506;-71
2022/04/22 07:12:33;;;;;;;42.83;29.40;;;;;;;9.32;83.54;100044.56;1716203;83;21041;-71
2022/04/22 07:15:06;;;;;;;41.90;29.87;;;;;;;9.34;83.50;100043.91;1728370;82;21482;-71
2022/04/22 07:17:37;;;;;;;43.08;29.20;;;;;;;9.37;83.45;100043.56;1733024;82;21059;-71
2022/04/22 07:20:09;;;;;;;43.48;30.65;;;;;;;9.41;83.43;100042.22;1731664;82;21232;-71
2022/04/22 07:22:34;;;;;;;43.50;30.05;;;;;;;9.44;83.40;100035.72;1738257;80;21042;-71
2022/04/22 07:25:01;;;;;;;42.35;29.55;;;;;;;9.49;83.36;100040.87;1741673;82;21046;-71
2022/04/22 07:27:28;;;;;;;42.35;31.00;;;;;;;9.60;83.32;100041.00;1738748;82;20992;-71
2022/04/22 07:29:55;;;;;;;38.33;28.10;;;;;;;9.68;83.28;100038.78;1721379;82;21108;-71
2022/04/22 07:32:22;;;;;;;38.92;28.23;;;;;;;9.79;83.22;100045.90;1745005;81;22028;-71
2022/04/22 07:34:48;;;;;;;40.88;27.77;;;;;;;9.89;83.15;100051.00;1721410;82;21084;-72
2022/04/22 07:37:14;;;;;;;39.38;27.27;;;;;;;9.95;83.09;100056.49;1740852;82;21012;-72
2022/04/22 07:39:41;;;;;;;37.80;27.22;;;;;;;10.06;83.03;100064.59;1729138;81;21027;-72
2022/04/22 07:42:07;;;;;;;35.90;26.00;;;;;;;10.10;82.95;100065.88;1736981;81;21072;-72
2022/04/22 07:47:24;;;;;;;38.50;27.25;;;;;;;10.27;82.79;100056.84;1752808;80;21013;-72
2022/04/22 07:49:51;;;;;;;34.48;24.90;;;;;;;10.34;82.71;100054.30;1713807;82;20990;-72
2022/04/22 07:52:17;;;;;;;36.00;25.05;;;;;;;10.42;82.62;100045.73;1722919;82;21098;-72
2022/04/22 07:54:43;;;;;;;34.60;24.45;;;;;;;10.47;82.54;100042.03;1739436;82;21570;-72
2022/04/22 07:57:10;;;;;;;34.73;25.02;;;;;;;10.55;82.43;100049.65;1735170;82;21078;-72
2022/04/22 07:59:36;;;;;;;37.53;25.77;;;;;;;10.58;82.30;100047.45;1731497;82;21653;-72
2022/04/22 08:02:03;;;;;;;36.42;24.70;;;;;;;10.63;82.21;100054.40;1734858;81;21493;-71
2022/04/22 08:04:30;;;;;;;32.73;25.00;;;;;;;10.66;81.99;100057.23;1721228;82;21000;-72
2022/04/22 08:06:56;;;;;;;35.95;25.05;;;;;;;10.69;81.85;100059.54;1712078;82;21480;-72
2022/04/22 08:09:22;;;;;;;32.90;24.43;;;;;;;10.79;81.74;100052.95;1714967;83;21495;-71
2022/04/22 08:11:48;;;;;;;32.08;23.62;;;;;;;10.97;81.62;100059.30;1726807;82;21543;-72
2022/04/22 08:14:14;;;;;;;39.48;25.70;;;;;;;11.08;81.47;100060.20;1732503;82;21034;-72
2022/04/22 08:16:41;;;;;;;35.58;25.12;;;;;;;11.16;81.32;100056.59;1744485;82;21926;-72
2022/04/22 08:19:07;;;;;;;37.90;24.92;;;;;;;11.34;81.22;100055.24;1733324;82;21481;-72
2022/04/22 08:21:33;;;;;;;31.73;24.50;;;;;;;11.54;81.11;100051.01;1749016;81;22570;-73
2022/04/22 08:24:01;;;;;;;32.03;23.52;;;;;;;11.76;80.94;100053.29;1753189;81;21003;-72
2022/04/22 08:26:30;;;;;;;34.63;24.05;;;;;;;11.94;80.71;100075.11;1751669;81;21101;-72
2022/04/22 08:28:55;;;;;;;31.40;22.37;;;;;;;12.05;80.34;100059.09;1752961;81;21047;-72
2022/04/22 08:31:21;;;;;;;28.27;21.40;;;;;;;12.14;79.92;100071.32;1745140;81;21410;-72
2022/04/22 08:33:48;;;;;;;29.67;22.37;;;;;;;12.14;79.43;100069.19;1752569;81;21579;-72
2022/04/22 08:36:15;;;;;;;31.75;22.42;;;;;;;12.16;79.02;100069.31;1728648;81;21106;-71
2022/04/22 08:38:41;;;;;;;30.77;22.17;;;;;;;12.26;78.63;100077.85;1723212;83;21100;-72
2022/04/22 08:41:08;;;;;;;33.20;21.40;;;;;;;12.36;78.27;100070.35;1723589;83;21553;-72
2022/04/22 08:43:33;;;;;;;26.33;18.98;;;;;;;12.41;77.84;100062.60;1753030;81;20987;-72
2022/04/22 08:46:00;;;;;;;26.20;18.77;;;;;;;12.47;77.49;100064.51;1753645;81;21140;-72
2022/04/22 08:51:11;;;;;;;20.80;15.88;;;;;;;12.39;76.38;100068.63;1745743;81;21078;-72
2022/04/22 08:53:37;;;;;;;18.87;14.73;;;;;;;12.35;75.82;100077.24;1668063;83;21026;-72
2022/04/22 08:56:03;;;;;;;18.90;13.98;;;;;;;12.20;75.44;100074.60;1724332;81;21030;-72
2022/04/22 08:58:29;;;;;;;20.97;14.07;;;;;;;12.14;75.21;100078.55;1752586;81;21148;-72
2022/04/22 09:00:59;;;;;;;20.82;12.80;;;;;;;11.98;74.86;100075.56;1737228;81;22111;-72
2022/04/22 09:03:29;;;;;;;16.32;12.10;;;;;;;11.89;74.48;100078.03;1739878;81;21021;-72
2022/04/22 09:05:56;;;;;;;13.45;11.10;;;;;;;11.87;74.27;100074.70;1741019;81;21053;-72
2022/04/22 09:08:25;;;;;;;13.13;10.48;;;;;;;11.79;73.90;100083.63;1770419;80;22254;-72
2022/04/22 09:10:54;;;;;;;13.48;10.70;;;;;;;11.71;73.64;100080.25;1789718;79;21868;-72
2022/04/22 09:13:30;;;;;;;16.50;10.43;;;;;;;11.65;73.44;100085.77;1788949;79;20998;-72
2022/04/22 09:16:00;;;;;;;15.08;11.50;;;;;;;11.60;73.13;100088.19;1764261;79;21007;-71
2022/04/22 09:18:26;;;;;;;16.55;11.18;;;;;;;11.59;72.89;100084.34;1754790;80;21030;-71
2022/04/22 09:20:56;;;;;;;12.23;10.53;;;;;;;11.61;72.73;100079.13;1763385;80;21327;-71
2022/04/22 09:23:32;;;;;;;12.88;11.08;;;;;;;11.62;72.55;100086.64;1764587;80;21121;-69
2022/04/22 09:25:59;;;;;;;12.47;11.15;;;;;;;11.62;72.41;100093.33;1735236;80;21419;-68
2022/04/22 09:28:25;;;;;;;14.90;12.13;;;;;;;11.64;72.21;100088.64;1733236;82;21048;-68
2022/04/22 09:31:02;;;;;;;18.37;13.00;;;;;;;11.71;72.12;100097.11;1743475;80;21716;-68
2022/04/22 09:33:47;;;;;;;18.75;13.30;;;;;;;11.87;72.09;100089.39;1752907;79;21084;-68
2022/04/22 09:44:57;;;;;;;14.47;12.88;;;;;;;12.39;71.27;100082.50;1757931;81;21073;-69
2022/04/22 09:47:32;;;;;;;18.05;13.18;;;;;;;12.36;71.18;100081.05;1748317;80;21073;-69
2022/04/22 09:50:01;;;;;;;18.52;15.35;;;;;;;12.40;71.12;100078.83;1763770;80;21187;-69
2022/04/22 09:52:31;;;;;;;15.80;14.03;;;;;;;12.40;70.98;100083.66;1763711;80;21006;-69
2022/04/22 09:55:04;;;;;;;16.75;14.20;;;;;;;12.38;70.78;100079.03;1755893;80;21457;-68
2022/04/22 09:57:52;;;;;;;16.67;14.70;;;;;;;12.34;70.58;100083.59;1759798;80;21415;-68
2022/04/22 10:00:20;;;;;;;20.77;15.28;;;;;;;12.32;70.49;100082.44;1761912;81;21105;-68
2022/04/22 10:02:53;;;;;;;16.67;14.70;;;;;;;12.30;70.25;100084.98;1764132;81;21161;-69
2022/04/22 10:05:19;;;;;;;19.37;16.05;;;;;;;12.26;70.10;100080.52;1763296;81;21022;-69
2022/04/22 10:07:47;;;;;;;20.10;15.75;;;;;;;12.28;70.04;100083.83;1740542;80;21135;-69
2022/04/22 10:10:14;;;;;;;20.17;14.73;;;;;;;12.27;69.96;100078.19;1735279;81;21030;-69
2022/04/22 10:12:40;;;;;;;18.00;14.53;;;;;;;12.30;69.98;100083.14;1751751;80;21620;-69
2022/04/22 10:15:09;;;;;;;13.43;11.45;;;;;;;12.24;69.89;100085.25;1719773;81;21128;-69
2022/04/22 10:17:37;;;;;;;14.10;12.15;;;;;;;12.13;69.68;100083.05;1764220;80;21042;-69
2022/04/22 10:20:06;;;;;;;13.68;11.50;;;;;;;11.99;69.57;100080.73;1760246;80;20990;-69
2022/04/22 10:22:33;;;;;;;14.70;12.03;;;;;;;11.98;69.50;100079.57;1763883;81;21018;-69
2022/04/22 10:24:59;;;;;;;14.60;11.40;;;;;;;11.99;69.46;100083.91;1732629;81;21038;-69
2022/04/22 10:27:25;;;;;;;19.20;11.78;;;;;;;12.10;69.45;100079.42;1749670;80;21138;-69
2022/04/22 10:29:52;;;;;;;18.35;12.53;;;;;;;12.24;69.46;100079.91;1765168;79;20970;-69
2022/04/22 10:32:18;;;;;;;13.93;10.72;;;;;;;12.35;69.46;100083.39;1762817;79;21617;-69
2022/04/22 10:34:45;;;;;;;14.35;10.78;;;;;;;12.38;69.32;100076.36;1763433;81;21552;-69
2022/04/22 10:37:20;;;;;;;14.23;11.50;;;;;;;12.35;69.03;100094.09;1755209;79;21037;-69
2022/04/22 10:39:51;;;;;;;15.40;11.20;;;;;;;12.40;68.93;100080.99;1749964;79;21070;-69
2022/04/22 10:42:17;;;;;;;16.42;12.33;;;;;;;12.50;68.75;100080.17;1764006;79;21065;-69
2022/04/22 10:47:45;;;;;;;16.52;11.50;;;;;;;12.55;68.30;100073.42;1734976;82;21030;-69
2022/04/22 10:50:33;;;;;;;15.98;10.78;;;;;;;12.72;68.30;100080.17;1704977;81;21001;-69
2022/04/22 10:53:06;;;;;;;11.38;9.75;;;;;;;12.89;68.17;100076.21;1788699;80;21449;-69
2022/04/22 10:55:41;;;;;;;11.38;9.13;;;;;;;12.92;67.99;100069.13;1761586;80;20997;-70
2022/04/22 10:58:20;;;;;;;12.90;9.78;;;;;;;12.82;67.66;100069.98;1756714;80;21037;-69
2022/04/22 11:00:59;;;;;;;15.60;8.78;;;;;;;12.79;67.52;100068.52;1762042;80;21101;-70
2022/04/22 11:03:36;;;;;;;13.50;9.48;;;;;;;12.75;67.41;100075.78;1761562;80;21553;-71
2022/04/22 11:06:04;;;;;;;11.33;9.30;;;;;;;12.70;67.39;100065.64;1784358;79;21061;-70
2022/04/22 11:08:39;;;;;;;13.95;8.43;;;;;;;12.65;67.31;100081.45;1757139;80;21034;-70
2022/04/22 11:11:11;;;;;;;11.20;8.73;;;;;;;12.40;67.04;100080.99;1796620;78;20975;-70
2022/04/22 11:13:43;;;;;;;10.55;8.90;;;;;;;12.18;67.01;100080.63;1821948;78;21133;-70
2022/04/22 11:16:26;;;;;;;10.72;9.53;;;;;;;11.99;67.00;100083.41;1794523;78;21536;-70
2022/04/22 11:19:20;;;;;;;15.45;11.28;;;;;;;11.87;67.09;100082.71;1789750;80;21743;-70
2022/04/22 11:21:52;;;;;;;11.80;10.43;;;;;;;11.78;67.22;100085.17;1789849;80;21019;-70
2022/04/22 11:24:21;;;;;;;13.62;10.43;;;;;;;11.74;67.44;100078.04;1777202;79;21483;-70
2022/04/22 11:26:47;;;;;;;15.85;10.72;;;;;;;11.78;67.60;100074.48;1789614;79;20991;-70
2022/04/22 11:29:15;;;;;;;14.07;9.90;;;;;;;11.85;67.74;100067.39;1779986;79;21002;-70
2022/04/22 11:31:41;;;;;;;13.65;8.80;;;;;;;12.00;67.87;100072.18;1779415;80;21146;-71
2022/04/22 11:34:14;;;;;;;11.18;8.23;;;;;;;12.26;68.00;100065.82;1779693;80;20975;-71
2022/04/22 11:36:47;;;;;;;11.65;8.25;;;;;;;12.45;68.03;100075.08;1774188;80;21015;-70
2022/04/22 11:39:22;;;;;;;9.45;7.50;;;;;;;12.56;68.03;100067.06;1770193;79;21023;-70
2022/04/22 11:41:58;;;;;;;8.85;7.78;;;;;;;12.75;68.02;100069.09;1783475;79;21042;-71
2022/04/22 11:44:25;;;;;;;9.63;8.33;;;;;;;12.89;67.94;100068.19;1778344;78;21669;-71
2022/04/22 11:46:52;;;;;;;8.60;7.65;;;;;;;13.00;67.83;100061.81;1749442;80;21051;-71
2022/04/22 11:49:22;;;;;;;11.73;8.25;;;;;;;13.01;67.73;100054.61;1777716;79;21015;-71
2022/04/22 11:51:54;;;;;;;;;;;;;;;12.85;67.57;100061.56;1775239;79;21027;-71
2022/04/22 11:54:24;;;;;;;8.15;6.83;;;;;;;12.70;67.41;100061.63;1771320;79;20458;-71
2022/04/22 11:56:54;;;;;;;12.43;6.47;;;;;;;12.58;67.17;100063.17;1770117;79;21594;-70
2022/04/22 11:59:22;;;;;;;8.75;6.75;;;;;;;12.42;66.65;100069.58;1745240;80;21093;-70
2022/04/22 12:05:32;;;;;;;7.58;6.53;;;;;;;12.28;66.08;100079.81;1778074;78;21666;-71
2022/04/22 12:08:00;;;;;;;8.93;6.95;;;;;;;12.27;66.00;100090.72;1767147;78;21595;-71
2022/04/22 12:09:40;;;;;;;9.85;6.15;;;;;;;12.37;66.01;100089.40;1743541;80;21080;-71
2022/04/22 12:12:08;;;;;;;6.53;5.62;;;;;;;12.42;66.08;100076.77;1751643;80;21252;-70
2022/04/22 12:14:34;;;;;;;7.22;5.67;;;;;;;12.47;66.00;100073.87;1774405;79;21086;-70
2022/04/22 12:17:01;;;;;;;7.90;5.72;;;;;;;12.45;65.81;100092.47;1755034;81;21463;-71